createdAt,value
2019-04-19T00:01:12.205Z,58.30
2019-04-19T00:03:40.266Z,58.40
2019-04-19T00:06:16.496Z,58.60
2019-04-19T00:08:59.966Z,58.60
2019-04-19T00:11:21.112Z,58.70
2019-04-19T00:13:40.901Z,58.90
2019-04-19T00:16:10.805Z,58.80
2019-04-19T00:18:47.989Z,59.00
2019-04-19T00:21:30.554Z,59.10
2019-04-19T00:23:44.611Z,59.00
2019-04-19T00:26:10.672Z,59.20
2019-04-19T00:28:47.784Z,59.20
2019-04-19T00:31:22.723Z,59.30
2019-04-19T00:33:44.465Z,59.50
2019-04-19T00:36:12.552Z,59.50
2019-04-19T00:38:54.225Z,59.40
2019-04-19T00:41:34.354Z,59.50
2019-04-19T00:44:05.755Z,59.50
2019-04-19T00:46:38.119Z,59.90
2019-04-19T00:49:08.020Z,59.80
2019-04-19T00:51:39.934Z,59.90
2019-04-19T00:54:06.115Z,60.00
2019-04-19T00:56:33.585Z,60.00
2019-04-19T00:59:00.687Z,59.90
2019-04-19T01:01:26.484Z,60.10
2019-04-19T01:03:55.678Z,60.20
2019-04-19T01:06:32.661Z,60.30
2019-04-19T01:09:07.574Z,60.20
2019-04-19T01:11:37.185Z,60.50
2019-04-19T01:14:08.385Z,60.50
2019-04-19T01:16:37.153Z,60.50
2019-04-19T01:19:03.652Z,60.50
2019-04-19T01:21:26.248Z,60.50
2019-04-19T01:23:59.084Z,60.60
2019-04-19T01:26:25.610Z,60.60
2019-04-19T01:29:01.635Z,60.80
2019-04-19T01:31:27.963Z,60.90
2019-04-19T01:33:54.721Z,60.30
2019-04-19T01:36:26.642Z,60.90
2019-04-19T01:39:14.115Z,60.90
2019-04-19T01:41:39.569Z,60.80
2019-04-19T01:44:16.215Z,60.90
2019-04-19T01:46:48.955Z,61.10
2019-04-19T01:49:13.984Z,61.50
2019-04-19T01:51:51.781Z,61.10
2019-04-19T01:54:34.581Z,61.10
2019-04-19T01:56:56.878Z,61.20
2019-04-19T01:59:20.491Z,61.30
2019-04-19T02:01:50.661Z,61.30
2019-04-19T02:04:24.673Z,61.50
2019-04-19T02:06:51.185Z,61.50
2019-04-19T02:09:31.328Z,61.70
2019-04-19T02:12:11.056Z,61.90
2019-04-19T02:14:38.196Z,61.90
2019-04-19T02:17:00.857Z,61.90
2019-04-19T02:19:29.474Z,62.20
2019-04-19T02:22:02.063Z,61.80
2019-04-19T02:24:34.635Z,62.10
2019-04-19T02:27:04.208Z,62.20
2019-04-19T02:29:31.671Z,62.00
2019-04-19T02:32:24.535Z,62.50
2019-04-19T02:34:58.683Z,62.20
2019-04-19T02:42:37.099Z,62.50
2019-04-19T02:47:39.197Z,62.80
2019-04-19T02:49:56.215Z,62.80
2019-04-19T02:52:36.940Z,63.50
2019-04-19T02:57:49.196Z,62.70
2019-04-19T03:00:13.454Z,62.70
2019-04-19T03:02:50.258Z,62.80
2019-04-19T03:05:14.975Z,62.70
2019-04-19T03:07:17.877Z,63.00
2019-04-19T03:09:47.274Z,62.90
2019-04-19T03:12:37.566Z,62.70
2019-04-19T03:15:02.038Z,63.00
2019-04-19T03:17:34.590Z,62.90
2019-04-19T03:20:09.262Z,62.80
2019-04-19T03:22:35.793Z,63.00
2019-04-19T03:25:09.000Z,63.00
2019-04-19T03:27:27.387Z,63.10
2019-04-19T03:29:55.699Z,63.20
2019-04-19T03:33:00.414Z,63.00
2019-04-19T03:35:03.985Z,63.20
2019-04-19T03:37:40.208Z,63.10
2019-04-19T03:40:18.886Z,63.20
2019-04-19T03:42:43.567Z,63.10
2019-04-19T03:45:25.715Z,63.10
2019-04-19T03:47:45.953Z,62.90
2019-04-19T03:50:12.946Z,63.00
2019-04-19T03:52:42.556Z,62.80
2019-04-19T03:55:14.081Z,62.90
2019-04-19T03:57:37.389Z,62.80
2019-04-19T03:59:54.240Z,62.90
2019-04-19T04:02:29.828Z,63.00
2019-04-19T04:04:59.471Z,62.90
2019-04-19T04:07:27.538Z,63.00
2019-04-19T04:09:59.275Z,63.30
2019-04-19T04:12:40.597Z,63.60
2019-04-19T04:15:11.896Z,63.60
2019-04-19T04:17:31.134Z,63.70
2019-04-19T04:20:00.893Z,64.10
2019-04-19T04:22:35.006Z,64.40
2019-04-19T04:25:09.546Z,64.40
2019-04-19T04:27:43.705Z,64.80
2019-04-19T04:30:10.136Z,65.00
2019-04-19T04:32:42.860Z,65.00
2019-04-19T04:35:20.255Z,65.10
2019-04-19T04:37:44.775Z,65.10
2019-04-19T04:40:02.307Z,65.30
2019-04-19T04:42:37.459Z,65.40
2019-04-19T04:45:23.003Z,65.70
2019-04-19T04:47:50.763Z,65.80
2019-04-19T04:50:45.437Z,65.70
2019-04-19T04:52:54.382Z,65.90
2019-04-19T04:55:28.351Z,67.50
2019-04-19T04:58:00.587Z,66.30
2019-04-19T05:00:35.017Z,67.20
2019-04-19T05:03:12.811Z,67.30
2019-04-19T05:05:46.123Z,67.40
2019-04-19T05:08:20.434Z,67.50
2019-04-19T05:10:41.069Z,67.60
2019-04-19T05:13:19.577Z,67.50
2019-04-19T05:15:51.842Z,67.80
2019-04-19T05:20:45.967Z,67.60
2019-04-19T05:23:19.795Z,67.80
2019-04-19T05:25:52.063Z,67.70
2019-04-19T05:28:18.895Z,68.00
2019-04-19T05:30:41.184Z,68.00
2019-04-19T05:33:11.653Z,68.20
2019-04-19T05:35:53.833Z,68.10
2019-04-19T05:38:44.926Z,68.10
2019-04-19T05:41:06.407Z,68.20
2019-04-19T05:46:21.027Z,68.50
2019-04-19T05:48:39.902Z,68.70
2019-04-19T05:51:27.599Z,68.80
2019-04-19T05:53:36.864Z,68.90
2019-04-19T05:56:00.755Z,68.90
2019-04-19T05:58:43.355Z,68.10
2019-04-19T06:01:18.501Z,67.50
2019-04-19T06:03:48.439Z,67.30
2019-04-19T06:06:26.439Z,67.60
2019-04-19T06:08:34.279Z,67.60
2019-04-19T06:11:03.358Z,67.70
2019-04-19T06:13:31.857Z,67.60
2019-04-19T06:16:21.071Z,67.40
2019-04-19T06:18:48.589Z,67.40
2019-04-19T06:21:23.008Z,67.20
2019-04-19T06:23:53.922Z,67.70
2019-04-19T06:26:50.364Z,67.20
2019-04-19T06:29:01.820Z,67.00
2019-04-19T06:31:27.141Z,67.00
2019-04-19T06:33:56.222Z,66.50
2019-04-19T06:36:06.378Z,66.60
2019-04-19T06:38:35.454Z,66.30
2019-04-19T06:41:10.292Z,66.40
2019-04-19T06:43:47.536Z,66.50
2019-04-19T06:46:16.582Z,66.80
2019-04-19T06:48:38.154Z,66.60
2019-04-19T06:51:15.569Z,66.70
2019-04-19T06:53:41.010Z,66.30
2019-04-19T06:56:14.456Z,66.50
2019-04-19T06:58:45.397Z,66.50
2019-04-19T07:01:17.980Z,66.10
2019-04-19T07:03:36.525Z,66.60
2019-04-19T07:06:19.716Z,66.30
2019-04-19T07:09:09.023Z,66.50
2019-04-19T07:11:27.333Z,66.60
2019-04-19T07:13:48.739Z,65.90
2019-04-19T07:16:26.531Z,66.60
2019-04-19T07:18:46.164Z,65.70
2019-04-19T07:21:31.593Z,65.00
2019-04-19T07:23:54.616Z,65.10
2019-04-19T07:26:27.406Z,64.40
2019-04-19T07:28:40.077Z,64.80
2019-04-19T07:31:11.339Z,64.50
2019-04-19T07:33:46.695Z,63.90
2019-04-19T07:36:28.953Z,64.40
2019-04-19T07:38:57.604Z,64.80
2019-04-19T07:41:30.380Z,64.40
2019-04-19T07:44:02.422Z,64.30
2019-04-19T07:46:40.007Z,64.00
2019-04-19T07:48:53.652Z,64.10
2019-04-19T07:51:28.614Z,64.30
2019-04-19T07:53:54.709Z,64.00
2019-04-19T07:56:37.622Z,64.20
2019-04-19T07:59:18.507Z,63.50
2019-04-19T08:04:33.136Z,63.80
2019-04-19T08:06:58.908Z,64.20
2019-04-19T08:09:21.630Z,63.80
2019-04-19T08:12:01.186Z,65.10
2019-04-19T08:14:22.884Z,64.40
2019-04-19T08:29:12.180Z,63.20
2019-04-19T08:31:27.570Z,63.30
2019-04-19T08:33:56.223Z,62.20
2019-04-19T08:36:32.277Z,61.90
2019-04-19T08:39:15.343Z,61.90
2019-04-19T08:41:39.801Z,61.10
2019-04-19T08:44:16.499Z,60.70
2019-04-19T08:46:28.195Z,61.90
2019-04-19T08:49:05.534Z,61.50
2019-04-19T08:51:39.969Z,62.00
2019-04-19T08:54:29.757Z,61.30
2019-04-19T08:56:44.973Z,60.30
2019-04-19T08:59:34.884Z,60.00
2019-04-19T09:01:57.451Z,61.10
2019-04-19T09:04:26.066Z,59.90
2019-04-19T09:09:32.634Z,58.70
2019-04-19T09:11:57.490Z,59.60
2019-04-19T09:14:32.816Z,57.40
2019-04-19T09:17:01.189Z,57.20
2019-04-19T09:19:44.631Z,57.20
2019-04-19T09:21:52.185Z,57.50
2019-04-19T09:24:15.971Z,57.60
2019-04-19T09:27:03.076Z,58.30
2019-04-19T09:29:40.395Z,57.00
2019-04-19T09:31:56.051Z,57.20
2019-04-19T09:34:20.070Z,56.80
2019-04-19T09:36:58.210Z,57.50
2019-04-19T09:39:31.225Z,56.90
2019-04-19T09:41:56.596Z,56.20
2019-04-19T09:44:25.856Z,55.90
2019-04-19T09:46:48.893Z,55.50
2019-04-19T09:49:36.829Z,55.00
2019-04-19T09:52:05.843Z,55.40
2019-04-19T09:54:43.531Z,55.10
2019-04-19T09:57:01.154Z,55.30
2019-04-19T09:59:25.800Z,54.80
2019-04-19T10:01:55.100Z,55.30
2019-04-19T10:04:19.233Z,55.50
2019-04-19T10:06:48.923Z,55.80
2019-04-19T10:09:22.234Z,55.30
2019-04-19T10:11:50.787Z,54.10
2019-04-19T10:14:19.583Z,54.10
2019-04-19T10:16:50.634Z,53.50
2019-04-19T10:19:19.277Z,53.90
2019-04-19T10:21:49.520Z,54.50
2019-04-19T10:24:20.645Z,53.90
2019-04-19T10:26:52.635Z,53.00
2019-04-19T10:29:28.127Z,53.60
2019-04-19T10:31:59.396Z,53.00
2019-04-19T10:34:28.199Z,52.00
2019-04-19T10:36:58.716Z,52.10
2019-04-19T10:39:27.852Z,53.10
2019-04-19T10:41:56.532Z,52.50
2019-04-19T10:44:26.995Z,52.90
2019-04-19T10:46:56.603Z,53.50
2019-04-19T10:49:33.523Z,51.90
2019-04-19T10:52:00.672Z,50.80
2019-04-19T10:54:30.607Z,51.20
2019-04-19T10:57:06.549Z,51.00
2019-04-19T10:59:36.470Z,51.00
2019-04-19T11:02:06.311Z,50.70
2019-04-19T11:04:35.292Z,50.30
2019-04-19T11:07:05.553Z,49.90
2019-04-19T11:09:35.395Z,50.50
2019-04-19T11:12:06.179Z,50.70
2019-04-19T11:14:34.786Z,49.90
2019-04-19T11:17:05.437Z,50.60
2019-04-19T11:19:51.825Z,48.90
2019-04-19T11:22:05.647Z,50.40
2019-04-19T11:27:03.378Z,50.60
2019-04-19T11:29:32.401Z,51.80
2019-04-19T11:32:06.018Z,51.00
2019-04-19T11:34:35.473Z,50.40
2019-04-19T11:37:05.294Z,49.60
2019-04-19T11:39:34.986Z,49.00
2019-04-19T11:42:03.710Z,48.90
2019-04-19T11:44:32.843Z,49.00
2019-04-19T11:47:03.509Z,47.60
2019-04-19T11:49:36.179Z,48.50
2019-04-19T11:52:03.057Z,48.40
2019-04-19T11:54:32.525Z,48.40
2019-04-19T11:57:06.343Z,48.00
2019-04-19T11:59:50.802Z,47.40
2019-04-19T12:02:25.797Z,47.60
2019-04-19T12:04:54.525Z,47.60
2019-04-19T12:07:24.237Z,47.10
2019-04-19T12:09:52.978Z,47.10
2019-04-19T12:12:21.482Z,47.10
2019-04-19T12:14:50.166Z,47.10
2019-04-19T12:17:18.789Z,46.60
2019-04-19T12:19:52.931Z,47.60
2019-04-19T12:22:17.585Z,47.60
2019-04-19T12:24:46.923Z,44.80
2019-04-19T12:27:16.342Z,44.70
2019-04-19T12:29:48.715Z,44.60
2019-04-19T12:32:17.112Z,44.20
2019-04-19T12:34:47.164Z,44.90
2019-04-19T12:37:17.273Z,45.30
2019-04-19T12:39:45.869Z,45.30
2019-04-19T12:42:31.707Z,46.30
2019-04-19T12:45:01.970Z,44.40
2019-04-19T12:47:31.118Z,44.40
2019-04-19T12:50:05.679Z,46.10
2019-04-19T12:52:31.188Z,44.50
2019-04-19T12:54:59.842Z,43.60
2019-04-19T12:57:30.062Z,42.40
2019-04-19T12:59:58.557Z,43.70
2019-04-19T13:02:45.045Z,43.90
2019-04-19T13:05:18.458Z,42.90
2019-04-19T13:07:47.318Z,41.70
2019-04-19T13:10:18.034Z,40.70
2019-04-19T13:12:47.762Z,42.20
2019-04-19T13:15:17.747Z,41.90
2019-04-19T13:17:46.927Z,40.30
2019-04-19T13:20:22.407Z,40.00
2019-04-19T13:22:46.347Z,39.50
2019-04-19T13:25:16.879Z,40.10
2019-04-19T13:27:50.631Z,40.40
2019-04-19T13:30:25.923Z,40.60
2019-04-19T13:32:47.933Z,41.20
2019-04-19T13:35:17.098Z,37.90
2019-04-19T13:38:03.323Z,40.30
2019-04-19T13:40:42.820Z,40.30
2019-04-19T13:43:11.519Z,39.60
2019-04-19T13:45:41.257Z,38.90
2019-04-19T13:48:10.493Z,38.70
2019-04-19T13:50:42.299Z,38.30
2019-04-19T13:53:09.343Z,38.60
2019-04-19T13:55:38.936Z,36.70
2019-04-19T13:58:07.664Z,38.30
2019-04-19T14:00:42.610Z,38.70
2019-04-19T14:03:11.922Z,38.80
2019-04-19T14:05:41.657Z,36.30
2019-04-19T14:08:11.184Z,37.60
2019-04-19T14:10:41.218Z,36.80
2019-04-19T14:13:10.542Z,37.80
2019-04-19T14:15:40.761Z,38.20
2019-04-19T14:18:10.800Z,38.90
2019-04-19T14:20:44.024Z,39.50
2019-04-19T14:23:10.410Z,38.70
2019-04-19T14:25:39.226Z,37.70
2019-04-19T14:28:09.273Z,36.40
2019-04-19T14:30:38.077Z,37.60
2019-04-19T14:33:08.352Z,35.70
2019-04-19T14:35:37.688Z,39.00
2019-04-19T14:38:07.541Z,37.90
2019-04-19T14:40:37.637Z,37.40
2019-04-19T14:43:06.718Z,36.40
2019-04-19T14:45:36.283Z,36.60
2019-04-19T14:48:05.152Z,35.70
2019-04-19T14:50:46.262Z,36.20
2019-04-19T14:53:04.043Z,37.50
2019-04-19T14:55:32.542Z,38.00
2019-04-19T14:58:01.086Z,37.60
2019-04-19T15:00:30.726Z,37.00
2019-04-19T15:03:07.366Z,36.80
2019-04-19T15:05:37.941Z,36.40
2019-04-19T15:08:06.557Z,37.00
2019-04-19T15:10:35.671Z,35.90
2019-04-19T15:13:04.938Z,35.40
2019-04-19T15:15:34.160Z,35.40
2019-04-19T15:18:02.738Z,35.20
2019-04-19T15:20:32.115Z,34.70
2019-04-19T15:23:00.799Z,36.40
2019-04-19T15:25:29.831Z,35.50
2019-04-19T15:27:59.082Z,35.00
2019-04-19T15:30:28.810Z,36.10
2019-04-19T15:32:58.363Z,35.10
2019-04-19T15:35:27.816Z,36.00
2019-04-19T15:37:56.426Z,35.60
2019-04-19T15:40:25.855Z,36.00
2019-04-19T15:42:54.877Z,34.90
2019-04-19T15:45:25.202Z,36.70
2019-04-19T15:47:54.927Z,35.30
2019-04-19T15:50:24.441Z,36.70
2019-04-19T15:52:53.787Z,34.80
2019-04-19T15:55:23.682Z,34.60
2019-04-19T15:57:52.685Z,35.20
2019-04-19T16:00:25.973Z,35.10
2019-04-19T16:03:05.577Z,34.10
2019-04-19T16:05:46.218Z,35.30
2019-04-19T16:08:22.664Z,35.50
2019-04-19T16:11:02.624Z,34.50
2019-04-19T16:13:31.949Z,35.30
2019-04-19T16:16:00.522Z,35.00
2019-04-19T16:18:29.245Z,34.80
2019-04-19T16:20:59.100Z,34.40
2019-04-19T16:23:28.148Z,35.00
2019-04-19T16:25:57.037Z,34.60
2019-04-19T16:28:25.748Z,35.30
2019-04-19T16:30:54.613Z,35.40
2019-04-19T16:33:23.418Z,36.70
2019-04-19T16:35:52.260Z,36.90
2019-04-19T16:38:21.847Z,35.90
2019-04-19T16:40:50.598Z,36.60
2019-04-19T16:43:19.583Z,36.90
2019-04-19T16:46:01.432Z,35.40
2019-04-19T16:48:18.841Z,35.00
2019-04-19T16:50:48.375Z,35.30
2019-04-19T16:53:17.750Z,34.50
2019-04-19T16:55:47.674Z,35.00
2019-04-19T16:58:16.713Z,35.50
2019-04-19T17:00:47.004Z,35.70
2019-04-19T17:03:17.322Z,36.60
2019-04-19T17:05:46.540Z,36.20
2019-04-19T17:08:15.533Z,35.70
2019-04-19T17:10:44.831Z,36.30
2019-04-19T17:13:14.885Z,36.50
2019-04-19T17:15:46.582Z,35.70
2019-04-19T17:18:34.555Z,35.50
2019-04-19T17:21:10.843Z,35.10
2019-04-19T17:23:40.484Z,35.90
2019-04-19T17:26:09.323Z,34.90
2019-04-19T17:28:38.924Z,34.10
2019-04-19T17:31:08.594Z,35.60
2019-04-19T17:33:38.122Z,35.40
2019-04-19T17:36:08.115Z,35.80
2019-04-19T17:38:44.668Z,34.50
2019-04-19T17:41:07.623Z,37.40
2019-04-19T17:43:37.535Z,38.30
2019-04-19T17:46:06.614Z,37.50
2019-04-19T17:48:36.739Z,39.50
2019-04-19T17:51:06.034Z,38.10
2019-04-19T17:53:39.936Z,38.20
2019-04-19T17:56:05.619Z,39.50
2019-04-19T17:58:34.312Z,37.70
2019-04-19T18:01:04.113Z,36.20
2019-04-19T18:03:33.289Z,38.30
2019-04-19T18:06:02.422Z,39.10
2019-04-19T18:08:33.083Z,38.30
2019-04-19T18:11:03.326Z,38.90
2019-04-19T18:13:33.062Z,38.10
2019-04-19T18:16:02.750Z,38.10
2019-04-19T18:18:41.174Z,39.40
2019-04-19T18:21:02.617Z,39.30
2019-04-19T18:23:41.126Z,40.30
2019-04-19T18:26:03.350Z,40.30
2019-04-19T18:28:38.295Z,41.20
2019-04-19T18:31:03.686Z,41.40
2019-04-19T18:33:34.334Z,41.40
2019-04-19T18:36:06.948Z,40.80
2019-04-19T18:38:33.201Z,41.30
2019-04-19T18:41:02.913Z,41.50
2019-04-19T18:43:41.660Z,42.60
2019-04-19T18:46:02.450Z,41.80
2019-04-19T18:48:31.481Z,42.40
2019-04-19T18:51:00.213Z,42.30
2019-04-19T18:53:39.265Z,42.70
2019-04-19T18:56:03.050Z,43.20
2019-04-19T18:58:32.975Z,43.90
2019-04-19T19:00:59.738Z,43.20
2019-04-19T19:03:33.972Z,43.70
2019-04-19T19:06:01.632Z,43.20
2019-04-19T19:08:31.421Z,42.80
2019-04-19T19:10:59.005Z,43.60
2019-04-19T19:13:31.892Z,42.90
2019-04-19T19:15:58.292Z,43.80
2019-04-19T19:18:35.033Z,43.10
2019-04-19T19:21:00.136Z,43.00
2019-04-19T19:23:44.701Z,42.90
2019-04-19T19:26:10.596Z,43.30
2019-04-19T19:28:28.582Z,43.60
2019-04-19T19:30:58.708Z,43.20
2019-04-19T19:33:36.625Z,42.80
2019-04-19T19:36:00.195Z,43.30
2019-04-19T19:38:30.847Z,43.60
2019-04-19T19:41:09.591Z,43.20
2019-04-19T19:43:42.575Z,43.90
2019-04-19T19:46:22.999Z,44.00
2019-04-19T19:48:57.739Z,44.20
2019-04-19T19:51:18.126Z,43.50
2019-04-19T19:54:25.426Z,43.70
2019-04-19T19:56:39.468Z,43.30
2019-04-19T19:58:36.855Z,44.20
2019-04-19T20:01:11.823Z,44.60
2019-04-19T20:03:37.712Z,44.30
2019-04-19T20:06:04.940Z,45.20
2019-04-19T20:08:37.447Z,45.30
2019-04-19T20:11:01.944Z,45.10
2019-04-19T20:13:35.953Z,45.20
2019-04-19T20:16:00.892Z,45.20
2019-04-19T20:18:38.239Z,45.70
2019-04-19T20:21:00.794Z,45.50
2019-04-19T20:23:35.352Z,45.80
2019-04-19T20:26:08.532Z,45.80
2019-04-19T20:28:33.280Z,45.10
2019-04-19T20:31:02.505Z,45.80
2019-04-19T20:33:36.888Z,46.10
2019-04-19T20:36:04.324Z,46.00
2019-04-19T20:38:42.129Z,46.30
2019-04-19T20:41:03.791Z,46.40
2019-04-19T20:43:46.065Z,45.60
2019-04-19T20:46:09.665Z,45.80
2019-04-19T20:48:33.493Z,46.20
2019-04-19T20:51:10.732Z,46.30
2019-04-19T20:53:42.983Z,45.70
2019-04-19T20:56:48.602Z,46.50
2019-04-19T20:58:57.917Z,46.60
2019-04-19T21:01:26.279Z,46.40
2019-04-19T21:03:58.390Z,46.00
2019-04-19T21:06:30.634Z,46.70
2019-04-19T21:08:56.250Z,46.00
2019-04-19T21:11:29.115Z,46.40
2019-04-19T21:13:59.966Z,46.90
2019-04-19T21:16:27.238Z,47.40
2019-04-19T21:19:00.701Z,46.50
2019-04-19T21:21:27.065Z,46.90
2019-04-19T21:24:00.490Z,47.10
2019-04-19T21:26:31.261Z,47.10
2019-04-19T21:28:58.054Z,46.90
2019-04-19T21:31:34.363Z,46.90
2019-04-19T21:33:59.432Z,46.70
2019-04-19T21:36:34.859Z,47.00
2019-04-19T21:39:04.380Z,46.50
2019-04-19T21:41:32.973Z,47.10
2019-04-19T21:43:58.600Z,47.10
2019-04-19T21:46:31.774Z,47.60
2019-04-19T21:49:03.659Z,48.00
2019-04-19T21:51:32.795Z,48.30
2019-04-19T21:53:58.775Z,47.20
2019-04-19T21:56:27.727Z,46.30
2019-04-19T21:58:59.179Z,45.30
2019-04-19T22:01:27.608Z,45.20
2019-04-19T22:04:04.764Z,45.70
2019-04-19T22:06:29.514Z,45.50
2019-04-19T22:08:59.186Z,45.80
2019-04-19T22:11:27.193Z,45.70
2019-04-19T22:13:56.073Z,45.70
2019-04-19T22:16:32.572Z,45.80
2019-04-19T22:18:56.231Z,45.70
2019-04-19T22:21:30.179Z,46.00
2019-04-19T22:23:56.399Z,45.90
2019-04-19T22:26:31.175Z,46.60
2019-04-19T22:28:55.566Z,46.80
2019-04-19T22:31:30.210Z,46.80
2019-04-19T22:33:54.588Z,46.80
2019-04-19T22:36:23.612Z,46.80
2019-04-19T22:38:55.060Z,47.00
2019-04-19T22:41:25.356Z,47.20
2019-04-19T22:43:52.785Z,47.50
2019-04-19T22:46:21.529Z,47.80
2019-04-19T22:48:54.108Z,48.00
2019-04-19T22:51:20.767Z,46.80
2019-04-19T22:53:50.429Z,46.60
2019-04-19T22:56:28.107Z,46.30
2019-04-19T22:58:49.593Z,46.20
2019-04-19T23:01:21.910Z,46.80
2019-04-19T23:03:50.541Z,46.70
2019-04-19T23:06:23.346Z,46.10
2019-04-19T23:08:50.523Z,46.10
2019-04-19T23:11:19.437Z,46.00
2019-04-19T23:13:47.961Z,45.50
2019-04-19T23:16:17.309Z,45.20
2019-04-19T23:18:53.208Z,45.10
2019-04-19T23:21:19.939Z,45.00
2019-04-19T23:23:47.095Z,45.30
2019-04-19T23:26:29.418Z,44.80
2019-04-19T23:28:48.020Z,44.60
2019-04-19T23:31:17.993Z,44.50
2019-04-19T23:33:55.057Z,44.40
2019-04-19T23:36:21.279Z,44.20
2019-04-19T23:38:47.476Z,44.30
2019-04-19T23:41:17.264Z,44.20
2019-04-19T23:43:47.238Z,44.60
2019-04-19T23:46:24.022Z,44.20
2019-04-19T23:48:46.899Z,44.80
2019-04-19T23:51:16.590Z,44.00
2019-04-19T23:53:46.415Z,44.20
2019-04-19T23:56:22.392Z,44.20
2019-04-19T23:58:46.155Z,44.40
